sensor_id;sensor_type;location;lat;lon;timestamp;temperature;humidity
262;DHT22;114;48.260;10.988;2023-07-02T00:01:13;16.40;83.80
262;DHT22;114;48.260;10.988;2023-07-02T00:03:39;16.40;83.80
262;DHT22;114;48.260;10.988;2023-07-02T00:06:05;16.40;83.40
262;DHT22;114;48.260;10.988;2023-07-02T00:08:31;16.40;82.50
262;DHT22;114;48.260;10.988;2023-07-02T00:10:56;16.50;81.40
262;DHT22;114;48.260;10.988;2023-07-02T00:13:22;16.50;79.50
262;DHT22;114;48.260;10.988;2023-07-02T00:15:48;16.50;79.50
262;DHT22;114;48.260;10.988;2023-07-02T00:18:14;16.50;80.40
262;DHT22;114;48.260;10.988;2023-07-02T00:20:44;16.40;83.20
262;DHT22;114;48.260;10.988;2023-07-02T00:23:10;16.40;83.60
262;DHT22;114;48.260;10.988;2023-07-02T00:25:36;16.40;85.20
262;DHT22;114;48.260;10.988;2023-07-02T00:28:03;16.40;84.80
262;DHT22;114;48.260;10.988;2023-07-02T00:30:28;16.40;84.70
262;DHT22;114;48.260;10.988;2023-07-02T00:32:55;16.40;85.20
262;DHT22;114;48.260;10.988;2023-07-02T00:35:21;16.50;85.70
262;DHT22;114;48.260;10.988;2023-07-02T00:37:48;16.50;86.40
262;DHT22;114;48.260;10.988;2023-07-02T00:40:14;16.50;86.80
262;DHT22;114;48.260;10.988;2023-07-02T00:42:40;16.50;87.40
262;DHT22;114;48.260;10.988;2023-07-02T00:45:07;16.50;86.90
262;DHT22;114;48.260;10.988;2023-07-02T00:47:34;16.50;85.30
262;DHT22;114;48.260;10.988;2023-07-02T00:50:00;16.50;84.70
262;DHT22;114;48.260;10.988;2023-07-02T00:52:27;16.50;84.30
262;DHT22;114;48.260;10.988;2023-07-02T00:54:53;16.50;84.20
262;DHT22;114;48.260;10.988;2023-07-02T00:57:19;16.40;84.60
262;DHT22;114;48.260;10.988;2023-07-02T00:59:45;16.50;84.60
262;DHT22;114;48.260;10.988;2023-07-02T01:02:11;16.40;84.90
262;DHT22;114;48.260;10.988;2023-07-02T01:04:39;16.40;86.20
262;DHT22;114;48.260;10.988;2023-07-02T01:07:05;16.30;87.40
262;DHT22;114;48.260;10.988;2023-07-02T01:09:35;16.30;88.10
262;DHT22;114;48.260;10.988;2023-07-02T01:12:06;16.40;87.10
262;DHT22;114;48.260;10.988;2023-07-02T01:14:40;16.40;87.00
262;DHT22;114;48.260;10.988;2023-07-02T01:17:06;16.40;87.40
262;DHT22;114;48.260;10.988;2023-07-02T01:19:51;16.30;88.10
262;DHT22;114;48.260;10.988;2023-07-02T01:22:19;16.30;88.90
262;DHT22;114;48.260;10.988;2023-07-02T01:24:45;16.30;88.80
262;DHT22;114;48.260;10.988;2023-07-02T01:27:13;16.30;88.80
262;DHT22;114;48.260;10.988;2023-07-02T01:29:40;16.30;89.00
262;DHT22;114;48.260;10.988;2023-07-02T01:32:06;16.30;89.10
262;DHT22;114;48.260;10.988;2023-07-02T01:34:34;16.20;89.00
262;DHT22;114;48.260;10.988;2023-07-02T01:37:00;16.20;90.00
262;DHT22;114;48.260;10.988;2023-07-02T01:39:26;16.30;89.40
262;DHT22;114;48.260;10.988;2023-07-02T01:41:53;16.20;90.10
262;DHT22;114;48.260;10.988;2023-07-02T01:44:20;16.30;88.90
262;DHT22;114;48.260;10.988;2023-07-02T01:46:46;16.20;89.20
262;DHT22;114;48.260;10.988;2023-07-02T01:49:16;16.20;88.90
262;DHT22;114;48.260;10.988;2023-07-02T01:51:48;16.30;88.90
262;DHT22;114;48.260;10.988;2023-07-02T01:54:14;16.30;88.20
262;DHT22;114;48.260;10.988;2023-07-02T01:56:40;16.30;87.60
262;DHT22;114;48.260;10.988;2023-07-02T01:59:06;16.40;87.40
262;DHT22;114;48.260;10.988;2023-07-02T02:01:32;16.40;85.90
262;DHT22;114;48.260;10.988;2023-07-02T02:03:58;16.40;85.60
262;DHT22;114;48.260;10.988;2023-07-02T02:06:24;16.40;84.80
262;DHT22;114;48.260;10.988;2023-07-02T02:08:49;16.50;84.80
262;DHT22;114;48.260;10.988;2023-07-02T02:11:15;16.50;84.80
262;DHT22;114;48.260;10.988;2023-07-02T02:13:41;16.50;84.50
262;DHT22;114;48.260;10.988;2023-07-02T02:16:07;16.50;83.80
262;DHT22;114;48.260;10.988;2023-07-02T02:18:32;16.50;82.90
262;DHT22;114;48.260;10.988;2023-07-02T02:20:58;16.60;81.40
262;DHT22;114;48.260;10.988;2023-07-02T02:23:24;16.60;80.90
262;DHT22;114;48.260;10.988;2023-07-02T02:25:49;16.60;80.40
262;DHT22;114;48.260;10.988;2023-07-02T02:28:15;16.60;80.60
262;DHT22;114;48.260;10.988;2023-07-02T02:30:41;16.20;47.60
262;DHT22;114;48.260;10.988;2023-07-02T02:33:07;15.90;47.90
262;DHT22;114;48.260;10.988;2023-07-02T02:35:32;15.40;46.40
262;DHT22;114;48.260;10.988;2023-07-02T02:38:02;15.10;55.60
262;DHT22;114;48.260;10.988;2023-07-02T02:40:28;14.80;59.90
262;DHT22;114;48.260;10.988;2023-07-02T02:42:54;14.70;62.80
262;DHT22;114;48.260;10.988;2023-07-02T02:45:19;14.70;63.80
262;DHT22;114;48.260;10.988;2023-07-02T02:47:48;14.70;66.60
262;DHT22;114;48.260;10.988;2023-07-02T02:50:14;14.70;66.80
262;DHT22;114;48.260;10.988;2023-07-02T02:52:40;14.60;69.20
262;DHT22;114;48.260;10.988;2023-07-02T02:55:06;14.70;75.30
262;DHT22;114;48.260;10.988;2023-07-02T02:57:33;14.70;77.10
262;DHT22;114;48.260;10.988;2023-07-02T02:59:59;14.70;78.60
262;DHT22;114;48.260;10.988;2023-07-02T03:02:25;14.70;80.00
262;DHT22;114;48.260;10.988;2023-07-02T03:04:51;14.80;80.40
262;DHT22;114;48.260;10.988;2023-07-02T03:07:17;14.80;82.30
262;DHT22;114;48.260;10.988;2023-07-02T03:09:42;14.80;83.40
262;DHT22;114;48.260;10.988;2023-07-02T03:12:08;14.80;81.50
262;DHT22;114;48.260;10.988;2023-07-02T03:14:34;14.90;82.90
262;DHT22;114;48.260;10.988;2023-07-02T03:17:00;15.00;80.20
262;DHT22;114;48.260;10.988;2023-07-02T03:19:26;15.00;75.30
262;DHT22;114;48.260;10.988;2023-07-02T03:21:52;15.00;76.70
262;DHT22;114;48.260;10.988;2023-07-02T03:24:18;15.00;74.00
262;DHT22;114;48.260;10.988;2023-07-02T03:26:44;15.00;74.30
262;DHT22;114;48.260;10.988;2023-07-02T03:29:11;15.00;76.40
262;DHT22;114;48.260;10.988;2023-07-02T03:31:37;15.00;78.90
262;DHT22;114;48.260;10.988;2023-07-02T03:34:05;15.10;81.30
262;DHT22;114;48.260;10.988;2023-07-02T03:36:31;15.00;83.40
262;DHT22;114;48.260;10.988;2023-07-02T03:38:57;15.00;81.40
262;DHT22;114;48.260;10.988;2023-07-02T03:41:23;14.90;84.40
262;DHT22;114;48.260;10.988;2023-07-02T03:43:48;15.00;84.90
262;DHT22;114;48.260;10.988;2023-07-02T03:46:15;15.00;81.30
262;DHT22;114;48.260;10.988;2023-07-02T03:48:41;15.00;78.40
262;DHT22;114;48.260;10.988;2023-07-02T03:51:07;15.00;79.10
262;DHT22;114;48.260;10.988;2023-07-02T03:53:32;14.90;79.50
262;DHT22;114;48.260;10.988;2023-07-02T03:55:58;14.90;80.40
262;DHT22;114;48.260;10.988;2023-07-02T03:58:24;14.90;81.20
262;DHT22;114;48.260;10.988;2023-07-02T04:00:50;14.80;82.10
262;DHT22;114;48.260;10.988;2023-07-02T04:03:18;14.80;83.10
262;DHT22;114;48.260;10.988;2023-07-02T04:05:44;14.80;84.60
262;DHT22;114;48.260;10.988;2023-07-02T04:08:10;14.80;85.60
262;DHT22;114;48.260;10.988;2023-07-02T04:10:36;14.80;84.50
262;DHT22;114;48.260;10.988;2023-07-02T04:13:02;14.80;85.20
262;DHT22;114;48.260;10.988;2023-07-02T04:15:28;14.80;86.70
262;DHT22;114;48.260;10.988;2023-07-02T04:17:54;14.70;87.50
262;DHT22;114;48.260;10.988;2023-07-02T04:20:20;14.70;87.60
262;DHT22;114;48.260;10.988;2023-07-02T04:22:46;14.80;89.30
262;DHT22;114;48.260;10.988;2023-07-02T04:25:12;14.80;89.70
262;DHT22;114;48.260;10.988;2023-07-02T04:27:42;14.80;90.00
262;DHT22;114;48.260;10.988;2023-07-02T04:30:09;14.80;89.40
262;DHT22;114;48.260;10.988;2023-07-02T04:32:35;14.80;89.80
262;DHT22;114;48.260;10.988;2023-07-02T04:35:02;14.80;86.90
262;DHT22;114;48.260;10.988;2023-07-02T04:37:28;14.80;86.10
262;DHT22;114;48.260;10.988;2023-07-02T04:39:54;14.80;85.60
262;DHT22;114;48.260;10.988;2023-07-02T04:42:20;14.90;85.60
262;DHT22;114;48.260;10.988;2023-07-02T04:44:45;14.90;87.00
262;DHT22;114;48.260;10.988;2023-07-02T04:47:11;15.00;85.90
262;DHT22;114;48.260;10.988;2023-07-02T04:49:38;15.00;84.20
262;DHT22;114;48.260;10.988;2023-07-02T04:52:04;15.00;84.10
262;DHT22;114;48.260;10.988;2023-07-02T04:54:30;15.00;84.40
262;DHT22;114;48.260;10.988;2023-07-02T04:56:55;15.00;83.40
262;DHT22;114;48.260;10.988;2023-07-02T04:59:21;15.00;82.20
262;DHT22;114;48.260;10.988;2023-07-02T05:01:47;15.10;82.70
262;DHT22;114;48.260;10.988;2023-07-02T05:04:13;15.10;80.90
262;DHT22;114;48.260;10.988;2023-07-02T05:06:39;15.20;78.60
262;DHT22;114;48.260;10.988;2023-07-02T05:09:05;15.30;77.30
262;DHT22;114;48.260;10.988;2023-07-02T05:11:31;15.30;76.50
262;DHT22;114;48.260;10.988;2023-07-02T05:13:57;15.40;74.70
262;DHT22;114;48.260;10.988;2023-07-02T05:16:22;15.30;73.40
262;DHT22;114;48.260;10.988;2023-07-02T05:18:48;15.30;74.50
262;DHT22;114;48.260;10.988;2023-07-02T05:21:17;15.30;77.30
262;DHT22;114;48.260;10.988;2023-07-02T05:23:43;15.20;74.30
262;DHT22;114;48.260;10.988;2023-07-02T05:26:09;15.10;74.50
262;DHT22;114;48.260;10.988;2023-07-02T05:28:35;15.10;76.40
262;DHT22;114;48.260;10.988;2023-07-02T05:31:00;15.20;77.40
262;DHT22;114;48.260;10.988;2023-07-02T05:33:26;15.20;77.20
262;DHT22;114;48.260;10.988;2023-07-02T05:35:52;15.20;76.00
262;DHT22;114;48.260;10.988;2023-07-02T05:38:18;15.20;75.80
262;DHT22;114;48.260;10.988;2023-07-02T05:40:45;15.30;75.30
262;DHT22;114;48.260;10.988;2023-07-02T05:43:11;15.30;75.70
262;DHT22;114;48.260;10.988;2023-07-02T05:45:37;15.30;78.10
262;DHT22;114;48.260;10.988;2023-07-02T05:48:03;15.20;76.70
262;DHT22;114;48.260;10.988;2023-07-02T05:50:28;15.20;77.20
262;DHT22;114;48.260;10.988;2023-07-02T05:52:54;15.30;79.20
262;DHT22;114;48.260;10.988;2023-07-02T05:55:20;15.40;81.20
262;DHT22;114;48.260;10.988;2023-07-02T05:57:46;15.40;80.50
262;DHT22;114;48.260;10.988;2023-07-02T06:00:12;15.50;78.30
262;DHT22;114;48.260;10.988;2023-07-02T06:02:38;15.60;78.60
262;DHT22;114;48.260;10.988;2023-07-02T06:05:04;15.60;76.90
262;DHT22;114;48.260;10.988;2023-07-02T06:07:41;15.50;76.00
262;DHT22;114;48.260;10.988;2023-07-02T06:10:10;15.50;76.80
262;DHT22;114;48.260;10.988;2023-07-02T06:12:36;15.60;76.70
262;DHT22;114;48.260;10.988;2023-07-02T06:15:02;15.60;77.10
262;DHT22;114;48.260;10.988;2023-07-02T06:17:33;15.60;74.90
262;DHT22;114;48.260;10.988;2023-07-02T06:20:03;15.60;74.10
262;DHT22;114;48.260;10.988;2023-07-02T06:22:36;15.80;77.80
262;DHT22;114;48.260;10.988;2023-07-02T06:25:01;15.70;75.60
262;DHT22;114;48.260;10.988;2023-07-02T06:27:30;15.60;79.40
262;DHT22;114;48.260;10.988;2023-07-02T06:29:56;15.60;79.00
262;DHT22;114;48.260;10.988;2023-07-02T06:32:22;15.50;79.50
262;DHT22;114;48.260;10.988;2023-07-02T06:34:47;15.40;81.80
262;DHT22;114;48.260;10.988;2023-07-02T06:37:13;15.60;84.90
262;DHT22;114;48.260;10.988;2023-07-02T06:39:39;15.70;81.50
262;DHT22;114;48.260;10.988;2023-07-02T06:42:05;15.40;81.80
262;DHT22;114;48.260;10.988;2023-07-02T06:44:30;15.30;84.20
262;DHT22;114;48.260;10.988;2023-07-02T06:46:56;15.20;84.60
262;DHT22;114;48.260;10.988;2023-07-02T06:49:22;15.10;83.50
262;DHT22;114;48.260;10.988;2023-07-02T06:51:48;14.90;83.30
262;DHT22;114;48.260;10.988;2023-07-02T06:54:13;14.90;83.80
262;DHT22;114;48.260;10.988;2023-07-02T06:56:39;14.80;83.60
262;DHT22;114;48.260;10.988;2023-07-02T06:59:05;14.90;86.80
262;DHT22;114;48.260;10.988;2023-07-02T07:01:30;15.00;87.30
262;DHT22;114;48.260;10.988;2023-07-02T07:03:56;15.10;90.60
262;DHT22;114;48.260;10.988;2023-07-02T07:06:22;15.10;87.70
262;DHT22;114;48.260;10.988;2023-07-02T07:08:48;15.30;87.70
262;DHT22;114;48.260;10.988;2023-07-02T07:11:13;15.40;85.50
262;DHT22;114;48.260;10.988;2023-07-02T07:13:39;15.60;84.50
262;DHT22;114;48.260;10.988;2023-07-02T07:16:05;15.70;82.80
262;DHT22;114;48.260;10.988;2023-07-02T07:18:30;15.60;82.10
262;DHT22;114;48.260;10.988;2023-07-02T07:20:56;15.50;80.80
262;DHT22;114;48.260;10.988;2023-07-02T07:23:22;15.60;81.70
262;DHT22;114;48.260;10.988;2023-07-02T07:25:47;15.80;82.00
262;DHT22;114;48.260;10.988;2023-07-02T07:28:13;15.70;79.50
262;DHT22;114;48.260;10.988;2023-07-02T07:30:42;15.50;76.70
262;DHT22;114;48.260;10.988;2023-07-02T07:33:08;15.60;77.70
262;DHT22;114;48.260;10.988;2023-07-02T07:35:34;15.70;77.10
262;DHT22;114;48.260;10.988;2023-07-02T07:37:59;15.90;78.10
262;DHT22;114;48.260;10.988;2023-07-02T07:40:25;16.00;70.60
262;DHT22;114;48.260;10.988;2023-07-02T07:42:51;16.30;76.40
262;DHT22;114;48.260;10.988;2023-07-02T07:45:16;16.40;66.30
262;DHT22;114;48.260;10.988;2023-07-02T07:47:42;16.70;66.00
262;DHT22;114;48.260;10.988;2023-07-02T07:50:08;16.80;61.10
262;DHT22;114;48.260;10.988;2023-07-02T07:52:38;16.80;59.70
262;DHT22;114;48.260;10.988;2023-07-02T07:55:05;16.50;56.90
262;DHT22;114;48.260;10.988;2023-07-02T07:57:31;16.70;61.70
262;DHT22;114;48.260;10.988;2023-07-02T07:59:57;16.80;54.90
262;DHT22;114;48.260;10.988;2023-07-02T08:02:22;17.00;52.60
262;DHT22;114;48.260;10.988;2023-07-02T08:04:48;17.30;50.20
262;DHT22;114;48.260;10.988;2023-07-02T08:07:14;17.60;50.00
262;DHT22;114;48.260;10.988;2023-07-02T08:09:41;17.40;40.40
262;DHT22;114;48.260;10.988;2023-07-02T08:12:07;17.60;42.60
262;DHT22;114;48.260;10.988;2023-07-02T08:14:33;18.00;40.60
262;DHT22;114;48.260;10.988;2023-07-02T08:17:00;18.00;37.10
262;DHT22;114;48.260;10.988;2023-07-02T08:19:26;17.60;37.80
262;DHT22;114;48.260;10.988;2023-07-02T08:21:52;17.60;36.30
262;DHT22;114;48.260;10.988;2023-07-02T08:24:17;17.50;40.10
262;DHT22;114;48.260;10.988;2023-07-02T08:26:43;17.10;42.50
262;DHT22;114;48.260;10.988;2023-07-02T08:29:10;17.20;46.30
262;DHT22;114;48.260;10.988;2023-07-02T08:31:36;17.50;43.90
262;DHT22;114;48.260;10.988;2023-07-02T08:34:02;17.60;34.20
262;DHT22;114;48.260;10.988;2023-07-02T08:36:28;17.60;35.90
262;DHT22;114;48.260;10.988;2023-07-02T08:38:53;18.10;36.40
262;DHT22;114;48.260;10.988;2023-07-02T08:41:20;18.50;27.90
262;DHT22;114;48.260;10.988;2023-07-02T08:43:47;18.70;26.10
262;DHT22;114;48.260;10.988;2023-07-02T08:46:15;18.70;26.10
262;DHT22;114;48.260;10.988;2023-07-02T08:48:41;18.40;27.10
262;DHT22;114;48.260;10.988;2023-07-02T08:51:07;18.30;24.00
262;DHT22;114;48.260;10.988;2023-07-02T08:53:33;17.90;31.90
262;DHT22;114;48.260;10.988;2023-07-02T08:56:00;17.90;29.50
262;DHT22;114;48.260;10.988;2023-07-02T08:58:26;17.80;30.00
262;DHT22;114;48.260;10.988;2023-07-02T09:03:35;17.90;29.30
262;DHT22;114;48.260;10.988;2023-07-02T09:06:08;17.80;28.90
262;DHT22;114;48.260;10.988;2023-07-02T09:08:34;18.10;29.90
262;DHT22;114;48.260;10.988;2023-07-02T09:11:14;18.30;29.30
262;DHT22;114;48.260;10.988;2023-07-02T09:14:00;18.60;25.50
262;DHT22;114;48.260;10.988;2023-07-02T09:16:31;18.70;22.80
262;DHT22;114;48.260;10.988;2023-07-02T09:19:07;18.40;25.90
262;DHT22;114;48.260;10.988;2023-07-02T09:21:47;18.50;25.40
262;DHT22;114;48.260;10.988;2023-07-02T09:24:23;18.70;23.00
262;DHT22;114;48.260;10.988;2023-07-02T09:26:53;19.20;19.70
262;DHT22;114;48.260;10.988;2023-07-02T09:31:52;18.80;21.50
262;DHT22;114;48.260;10.988;2023-07-02T09:34:17;18.80;19.50
262;DHT22;114;48.260;10.988;2023-07-02T09:36:43;18.70;18.50
262;DHT22;114;48.260;10.988;2023-07-02T09:39:19;18.30;28.30
262;DHT22;114;48.260;10.988;2023-07-02T09:41:48;18.50;24.70
262;DHT22;114;48.260;10.988;2023-07-02T09:44:16;18.50;26.90
262;DHT22;114;48.260;10.988;2023-07-02T09:46:48;18.30;28.20
262;DHT22;114;48.260;10.988;2023-07-02T09:49:17;18.20;27.60
262;DHT22;114;48.260;10.988;2023-07-02T09:51:43;18.00;29.70
262;DHT22;114;48.260;10.988;2023-07-02T09:54:10;18.00;34.10
262;DHT22;114;48.260;10.988;2023-07-02T09:56:35;18.20;32.00
262;DHT22;114;48.260;10.988;2023-07-02T09:59:01;18.50;32.30
262;DHT22;114;48.260;10.988;2023-07-02T10:01:27;18.90;29.70
262;DHT22;114;48.260;10.988;2023-07-02T10:03:53;19.50;27.50
262;DHT22;114;48.260;10.988;2023-07-02T10:06:18;19.70;19.20
262;DHT22;114;48.260;10.988;2023-07-02T10:08:56;20.10;16.30
262;DHT22;114;48.260;10.988;2023-07-02T10:11:33;20.40;14.30
262;DHT22;114;48.260;10.988;2023-07-02T10:14:00;19.80;12.70
262;DHT22;114;48.260;10.988;2023-07-02T10:16:26;20.10;17.40
262;DHT22;114;48.260;10.988;2023-07-02T10:18:53;20.40;14.60
262;DHT22;114;48.260;10.988;2023-07-02T10:21:20;19.80;14.70
262;DHT22;114;48.260;10.988;2023-07-02T10:23:45;19.60;19.00
262;DHT22;114;48.260;10.988;2023-07-02T10:26:18;19.20;17.20
262;DHT22;114;48.260;10.988;2023-07-02T10:28:57;19.10;17.60
262;DHT22;114;48.260;10.988;2023-07-02T10:31:23;19.60;17.00
262;DHT22;114;48.260;10.988;2023-07-02T10:33:49;19.90;16.10
262;DHT22;114;48.260;10.988;2023-07-02T10:36:21;20.20;14.20
262;DHT22;114;48.260;10.988;2023-07-02T10:38:51;20.80;8.50
262;DHT22;114;48.260;10.988;2023-07-02T10:41:29;20.80;6.10
262;DHT22;114;48.260;10.988;2023-07-02T10:44:06;21.00;5.00
262;DHT22;114;48.260;10.988;2023-07-02T10:46:32;21.10;6.70
262;DHT22;114;48.260;10.988;2023-07-02T10:48:57;20.80;3.20
262;DHT22;114;48.260;10.988;2023-07-02T10:51:23;21.00;1.00
262;DHT22;114;48.260;10.988;2023-07-02T10:54:02;20.40;3.60
262;DHT22;114;48.260;10.988;2023-07-02T10:56:31;20.00;7.40
262;DHT22;114;48.260;10.988;2023-07-02T10:58:57;19.70;11.70
262;DHT22;114;48.260;10.988;2023-07-02T11:01:30;19.70;11.90
262;DHT22;114;48.260;10.988;2023-07-02T11:04:01;19.50;11.80
262;DHT22;114;48.260;10.988;2023-07-02T11:06:28;19.50;14.50
262;DHT22;114;48.260;10.988;2023-07-02T11:08:55;19.60;12.20
262;DHT22;114;48.260;10.988;2023-07-02T11:11:21;19.70;12.10
262;DHT22;114;48.260;10.988;2023-07-02T11:13:49;19.70;10.70
262;DHT22;114;48.260;10.988;2023-07-02T11:16:26;19.60;13.00
262;DHT22;114;48.260;10.988;2023-07-02T11:19:09;20.00;12.00
262;DHT22;114;48.260;10.988;2023-07-02T11:21:35;20.30;9.00
262;DHT22;114;48.260;10.988;2023-07-02T11:24:02;21.00;4.00
262;DHT22;114;48.260;10.988;2023-07-02T11:26:38;21.70;1.40
262;DHT22;114;48.260;10.988;2023-07-02T11:29:04;22.30;1.00
262;DHT22;114;48.260;10.988;2023-07-02T11:31:33;22.80;1.00
262;DHT22;114;48.260;10.988;2023-07-02T11:33:59;22.00;1.00
262;DHT22;114;48.260;10.988;2023-07-02T11:36:24;22.40;1.00
262;DHT22;114;48.260;10.988;2023-07-02T11:38:51;22.70;1.00
262;DHT22;114;48.260;10.988;2023-07-02T11:41:18;22.20;1.00
262;DHT22;114;48.260;10.988;2023-07-02T11:43:44;22.10;1.00
262;DHT22;114;48.260;10.988;2023-07-02T11:46:10;23.00;1.00
262;DHT22;114;48.260;10.988;2023-07-02T11:48:35;23.00;1.00
262;DHT22;114;48.260;10.988;2023-07-02T11:51:01;23.50;1.00
262;DHT22;114;48.260;10.988;2023-07-02T11:53:27;23.30;1.00
262;DHT22;114;48.260;10.988;2023-07-02T11:55:52;23.50;1.00
262;DHT22;114;48.260;10.988;2023-07-02T11:58:18;23.90;1.00
262;DHT22;114;48.260;10.988;2023-07-02T12:00:44;24.60;1.00
262;DHT22;114;48.260;10.988;2023-07-02T12:03:10;25.40;1.00
262;DHT22;114;48.260;10.988;2023-07-02T12:05:36;25.30;1.00
262;DHT22;114;48.260;10.988;2023-07-02T12:08:02;24.90;1.00
262;DHT22;114;48.260;10.988;2023-07-02T12:10:28;24.80;1.00
262;DHT22;114;48.260;10.988;2023-07-02T12:12:54;25.10;1.00
262;DHT22;114;48.260;10.988;2023-07-02T12:15:20;25.20;1.00
262;DHT22;114;48.260;10.988;2023-07-02T12:17:45;24.90;1.00
262;DHT22;114;48.260;10.988;2023-07-02T12:20:11;25.20;1.00
262;DHT22;114;48.260;10.988;2023-07-02T12:22:37;25.70;1.00
262;DHT22;114;48.260;10.988;2023-07-02T12:25:03;25.90;1.00
262;DHT22;114;48.260;10.988;2023-07-02T12:27:29;25.90;1.00
262;DHT22;114;48.260;10.988;2023-07-02T12:29:56;26.30;1.00
262;DHT22;114;48.260;10.988;2023-07-02T12:32:21;26.10;1.00
262;DHT22;114;48.260;10.988;2023-07-02T12:34:47;25.50;1.00
262;DHT22;114;48.260;10.988;2023-07-02T12:37:13;24.30;1.00
262;DHT22;114;48.260;10.988;2023-07-02T12:39:42;24.30;1.00
262;DHT22;114;48.260;10.988;2023-07-02T12:42:08;24.00;1.00
262;DHT22;114;48.260;10.988;2023-07-02T12:44:34;25.20;1.00
262;DHT22;114;48.260;10.988;2023-07-02T12:47:00;25.00;1.00
262;DHT22;114;48.260;10.988;2023-07-02T12:49:26;24.20;1.00
262;DHT22;114;48.260;10.988;2023-07-02T12:51:51;23.90;1.00
262;DHT22;114;48.260;10.988;2023-07-02T12:54:17;23.50;1.00
262;DHT22;114;48.260;10.988;2023-07-02T12:56:43;23.60;1.00
262;DHT22;114;48.260;10.988;2023-07-02T12:59:08;23.80;1.00
262;DHT22;114;48.260;10.988;2023-07-02T13:01:34;24.30;1.00
262;DHT22;114;48.260;10.988;2023-07-02T13:04:00;24.40;1.00
262;DHT22;114;48.260;10.988;2023-07-02T13:06:27;24.50;1.00
262;DHT22;114;48.260;10.988;2023-07-02T13:08:53;24.40;1.00
262;DHT22;114;48.260;10.988;2023-07-02T13:11:21;24.30;1.00
262;DHT22;114;48.260;10.988;2023-07-02T13:13:47;23.80;1.00
262;DHT22;114;48.260;10.988;2023-07-02T13:16:13;23.90;1.00
262;DHT22;114;48.260;10.988;2023-07-02T13:18:38;24.10;1.00
262;DHT22;114;48.260;10.988;2023-07-02T13:21:04;25.00;1.00
262;DHT22;114;48.260;10.988;2023-07-02T13:23:30;25.60;1.00
262;DHT22;114;48.260;10.988;2023-07-02T13:25:55;26.10;1.00
262;DHT22;114;48.260;10.988;2023-07-02T13:28:21;25.60;1.00
262;DHT22;114;48.260;10.988;2023-07-02T13:30:47;24.90;1.00
262;DHT22;114;48.260;10.988;2023-07-02T13:33:13;25.40;1.00
262;DHT22;114;48.260;10.988;2023-07-02T13:35:38;25.60;1.00
262;DHT22;114;48.260;10.988;2023-07-02T13:38:04;27.40;1.00
262;DHT22;114;48.260;10.988;2023-07-02T13:40:30;27.90;1.00
262;DHT22;114;48.260;10.988;2023-07-02T13:42:56;28.50;1.00
262;DHT22;114;48.260;10.988;2023-07-02T13:45:22;28.80;1.00
262;DHT22;114;48.260;10.988;2023-07-02T13:47:47;28.80;1.00
262;DHT22;114;48.260;10.988;2023-07-02T13:50:13;30.30;1.00
262;DHT22;114;48.260;10.988;2023-07-02T13:52:40;31.40;1.00
262;DHT22;114;48.260;10.988;2023-07-02T13:55:06;29.00;1.00
262;DHT22;114;48.260;10.988;2023-07-02T13:57:31;27.60;1.00
262;DHT22;114;48.260;10.988;2023-07-02T13:59:57;26.70;1.00
262;DHT22;114;48.260;10.988;2023-07-02T14:02:23;25.40;1.00
262;DHT22;114;48.260;10.988;2023-07-02T14:04:49;24.60;1.00
262;DHT22;114;48.260;10.988;2023-07-02T14:07:15;25.10;1.00
262;DHT22;114;48.260;10.988;2023-07-02T14:09:41;24.60;1.00
262;DHT22;114;48.260;10.988;2023-07-02T14:12:07;24.80;1.00
262;DHT22;114;48.260;10.988;2023-07-02T14:14:33;26.50;1.00
262;DHT22;114;48.260;10.988;2023-07-02T14:16:59;28.10;1.00
262;DHT22;114;48.260;10.988;2023-07-02T14:19:24;30.10;1.00
262;DHT22;114;48.260;10.988;2023-07-02T14:21:50;30.50;1.00
262;DHT22;114;48.260;10.988;2023-07-02T14:24:15;30.00;1.00
262;DHT22;114;48.260;10.988;2023-07-02T14:26:41;30.00;1.00
262;DHT22;114;48.260;10.988;2023-07-02T14:29:09;31.90;1.00
262;DHT22;114;48.260;10.988;2023-07-02T14:31:34;32.60;1.00
262;DHT22;114;48.260;10.988;2023-07-02T14:34:00;32.20;1.00
262;DHT22;114;48.260;10.988;2023-07-02T14:36:26;29.30;1.00
262;DHT22;114;48.260;10.988;2023-07-02T14:38:52;27.50;1.00
262;DHT22;114;48.260;10.988;2023-07-02T14:41:17;26.20;1.00
262;DHT22;114;48.260;10.988;2023-07-02T14:43:43;25.60;1.00
262;DHT22;114;48.260;10.988;2023-07-02T14:46:09;25.10;1.00
262;DHT22;114;48.260;10.988;2023-07-02T14:48:38;25.20;1.00
262;DHT22;114;48.260;10.988;2023-07-02T14:51:04;27.40;1.00
262;DHT22;114;48.260;10.988;2023-07-02T14:53:31;29.50;1.00
262;DHT22;114;48.260;10.988;2023-07-02T14:55:59;30.20;1.00
262;DHT22;114;48.260;10.988;2023-07-02T14:58:26;31.10;1.00
262;DHT22;114;48.260;10.988;2023-07-02T15:00:54;31.30;1.00
262;DHT22;114;48.260;10.988;2023-07-02T15:03:22;30.60;1.00
262;DHT22;114;48.260;10.988;2023-07-02T15:05:49;30.50;1.00
262;DHT22;114;48.260;10.988;2023-07-02T15:08:15;31.20;1.00
262;DHT22;114;48.260;10.988;2023-07-02T15:10:45;30.90;1.00
262;DHT22;114;48.260;10.988;2023-07-02T15:13:11;29.30;1.00
262;DHT22;114;48.260;10.988;2023-07-02T15:15:37;27.50;1.00
262;DHT22;114;48.260;10.988;2023-07-02T15:18:05;26.40;1.00
262;DHT22;114;48.260;10.988;2023-07-02T15:20:33;25.60;1.00
262;DHT22;114;48.260;10.988;2023-07-02T15:22:58;25.60;1.00
262;DHT22;114;48.260;10.988;2023-07-02T15:25:24;27.10;1.00
262;DHT22;114;48.260;10.988;2023-07-02T15:27:51;28.60;1.00
262;DHT22;114;48.260;10.988;2023-07-02T15:30:17;29.40;1.00
262;DHT22;114;48.260;10.988;2023-07-02T15:32:43;29.00;1.00
262;DHT22;114;48.260;10.988;2023-07-02T15:35:09;28.40;1.00
262;DHT22;114;48.260;10.988;2023-07-02T15:37:35;28.30;1.00
262;DHT22;114;48.260;10.988;2023-07-02T15:40:00;27.60;1.00
262;DHT22;114;48.260;10.988;2023-07-02T15:42:26;28.40;1.00
262;DHT22;114;48.260;10.988;2023-07-02T15:44:55;28.00;1.00
262;DHT22;114;48.260;10.988;2023-07-02T15:47:21;28.20;1.00
262;DHT22;114;48.260;10.988;2023-07-02T15:49:47;28.50;1.00
262;DHT22;114;48.260;10.988;2023-07-02T15:52:14;27.90;1.00
262;DHT22;114;48.260;10.988;2023-07-02T15:54:39;27.20;1.00
262;DHT22;114;48.260;10.988;2023-07-02T15:57:05;27.90;1.00
262;DHT22;114;48.260;10.988;2023-07-02T15:59:32;28.80;1.00
262;DHT22;114;48.260;10.988;2023-07-02T16:01:58;29.80;1.00
262;DHT22;114;48.260;10.988;2023-07-02T16:04:24;30.00;1.00
262;DHT22;114;48.260;10.988;2023-07-02T16:06:51;28.90;1.00
262;DHT22;114;48.260;10.988;2023-07-02T16:09:17;27.50;1.00
262;DHT22;114;48.260;10.988;2023-07-02T16:11:43;25.90;1.00
262;DHT22;114;48.260;10.988;2023-07-02T16:14:11;24.80;1.00
262;DHT22;114;48.260;10.988;2023-07-02T16:16:41;25.00;1.00
262;DHT22;114;48.260;10.988;2023-07-02T16:19:09;26.60;1.00
262;DHT22;114;48.260;10.988;2023-07-02T16:21:36;27.70;1.00
262;DHT22;114;48.260;10.988;2023-07-02T16:24:20;27.60;1.00
262;DHT22;114;48.260;10.988;2023-07-02T16:26:47;27.00;1.00